sensor_id;sensor_type;location;lat;lon;timestamp;P1;durP1;ratioP1;P2;durP2;ratioP2
72065;SDS011;59939;52.516;13.420;2022-11-15T00:02:10;76.03;;;41.43;;
72065;SDS011;59939;52.516;13.420;2022-11-15T00:05:36;78.83;;;39.70;;
72065;SDS011;59939;52.516;13.420;2022-11-15T00:08:59;75.97;;;39.00;;
72065;SDS011;59939;52.516;13.420;2022-11-15T00:12:22;77.83;;;38.87;;
72065;SDS011;59939;52.516;13.420;2022-11-15T00:15:47;80.03;;;37.27;;
72065;SDS011;59939;52.516;13.420;2022-11-15T00:19:13;84.57;;;41.60;;
72065;SDS011;59939;52.516;13.420;2022-11-15T00:22:36;82.77;;;43.17;;
72065;SDS011;59939;52.516;13.420;2022-11-15T00:25:59;88.17;;;44.60;;
72065;SDS011;59939;52.516;13.420;2022-11-15T00:29:25;80.10;;;40.60;;
72065;SDS011;59939;52.516;13.420;2022-11-15T00:32:48;77.13;;;39.13;;
72065;SDS011;59939;52.516;13.420;2022-11-15T00:36:10;85.83;;;45.50;;
72065;SDS011;59939;52.516;13.420;2022-11-15T00:39:34;87.10;;;44.00;;
72065;SDS011;59939;52.516;13.420;2022-11-15T00:42:57;84.33;;;39.60;;
72065;SDS011;59939;52.516;13.420;2022-11-15T00:46:20;86.13;;;42.23;;
72065;SDS011;59939;52.516;13.420;2022-11-15T00:49:43;95.77;;;47.20;;
72065;SDS011;59939;52.516;13.420;2022-11-15T00:53:05;85.17;;;40.37;;
72065;SDS011;59939;52.516;13.420;2022-11-15T00:56:29;93.70;;;45.97;;
72065;SDS011;59939;52.516;13.420;2022-11-15T00:59:51;88.73;;;43.53;;
72065;SDS011;59939;52.516;13.420;2022-11-15T01:03:13;95.43;;;46.73;;
72065;SDS011;59939;52.516;13.420;2022-11-15T01:06:37;88.33;;;43.93;;
72065;SDS011;59939;52.516;13.420;2022-11-15T01:09:59;85.37;;;40.50;;
72065;SDS011;59939;52.516;13.420;2022-11-15T01:13:22;92.40;;;43.40;;
72065;SDS011;59939;52.516;13.420;2022-11-15T01:16:45;94.30;;;46.47;;
72065;SDS011;59939;52.516;13.420;2022-11-15T01:20:08;98.80;;;48.40;;
72065;SDS011;59939;52.516;13.420;2022-11-15T01:23:31;98.23;;;48.00;;
72065;SDS011;59939;52.516;13.420;2022-11-15T01:26:53;89.67;;;44.90;;
72065;SDS011;59939;52.516;13.420;2022-11-15T01:30:16;98.10;;;46.57;;
72065;SDS011;59939;52.516;13.420;2022-11-15T01:33:39;100.97;;;44.07;;
72065;SDS011;59939;52.516;13.420;2022-11-15T01:37:02;106.53;;;45.23;;
72065;SDS011;59939;52.516;13.420;2022-11-15T01:40:25;95.50;;;46.83;;
72065;SDS011;59939;52.516;13.420;2022-11-15T01:43:56;103.00;;;46.70;;
72065;SDS011;59939;52.516;13.420;2022-11-15T01:47:30;99.07;;;49.17;;
72065;SDS011;59939;52.516;13.420;2022-11-15T01:50:55;102.73;;;51.67;;
72065;SDS011;59939;52.516;13.420;2022-11-15T01:54:21;91.47;;;41.60;;
72065;SDS011;59939;52.516;13.420;2022-11-15T01:57:46;106.73;;;47.27;;
72065;SDS011;59939;52.516;13.420;2022-11-15T02:01:12;98.73;;;45.20;;
72065;SDS011;59939;52.516;13.420;2022-11-15T02:04:45;93.10;;;41.97;;
72065;SDS011;59939;52.516;13.420;2022-11-15T02:08:09;95.80;;;44.37;;
72065;SDS011;59939;52.516;13.420;2022-11-15T02:11:41;112.23;;;50.37;;
72065;SDS011;59939;52.516;13.420;2022-11-15T02:15:06;114.13;;;46.53;;
72065;SDS011;59939;52.516;13.420;2022-11-15T02:18:32;110.70;;;50.03;;
72065;SDS011;59939;52.516;13.420;2022-11-15T02:33:42;97.73;;;46.50;;
72065;SDS011;59939;52.516;13.420;2022-11-15T02:37:39;88.60;;;41.97;;
72065;SDS011;59939;52.516;13.420;2022-11-15T02:45:09;91.80;;;42.13;;
72065;SDS011;59939;52.516;13.420;2022-11-15T02:48:40;95.10;;;46.87;;
72065;SDS011;59939;52.516;13.420;2022-11-15T02:52:06;90.00;;;46.50;;
72065;SDS011;59939;52.516;13.420;2022-11-15T02:55:37;91.87;;;45.07;;
72065;SDS011;59939;52.516;13.420;2022-11-15T02:59:07;91.87;;;45.23;;
72065;SDS011;59939;52.516;13.420;2022-11-15T03:10:32;83.40;;;41.87;;
72065;SDS011;59939;52.516;13.420;2022-11-15T03:14:18;77.77;;;40.10;;
72065;SDS011;59939;52.516;13.420;2022-11-15T03:17:48;90.47;;;45.77;;
72065;SDS011;59939;52.516;13.420;2022-11-15T03:21:16;82.93;;;42.83;;
72065;SDS011;59939;52.516;13.420;2022-11-15T03:24:43;82.57;;;43.33;;
72065;SDS011;59939;52.516;13.420;2022-11-15T03:28:14;85.43;;;42.73;;
72065;SDS011;59939;52.516;13.420;2022-11-15T03:31:43;81.30;;;42.67;;
72065;SDS011;59939;52.516;13.420;2022-11-15T03:35:12;79.43;;;44.13;;
72065;SDS011;59939;52.516;13.420;2022-11-15T03:38:39;76.63;;;41.43;;
72065;SDS011;59939;52.516;13.420;2022-11-15T03:46:16;80.23;;;39.70;;
72065;SDS011;59939;52.516;13.420;2022-11-15T03:50:05;86.27;;;35.30;;
72065;SDS011;59939;52.516;13.420;2022-11-15T03:53:30;80.23;;;41.17;;
72065;SDS011;59939;52.516;13.420;2022-11-15T03:56:54;72.80;;;40.23;;
72065;SDS011;59939;52.516;13.420;2022-11-15T04:00:16;70.47;;;37.10;;
72065;SDS011;59939;52.516;13.420;2022-11-15T04:03:39;66.27;;;36.50;;
72065;SDS011;59939;52.516;13.420;2022-11-15T04:07:02;75.47;;;39.50;;
72065;SDS011;59939;52.516;13.420;2022-11-15T04:10:24;69.93;;;37.47;;
72065;SDS011;59939;52.516;13.420;2022-11-15T04:13:47;80.80;;;41.03;;
72065;SDS011;59939;52.516;13.420;2022-11-15T04:17:10;84.20;;;42.90;;
72065;SDS011;59939;52.516;13.420;2022-11-15T04:20:32;81.63;;;44.17;;
72065;SDS011;59939;52.516;13.420;2022-11-15T04:24:14;78.17;;;37.17;;
72065;SDS011;59939;52.516;13.420;2022-11-15T04:27:37;72.97;;;37.83;;
72065;SDS011;59939;52.516;13.420;2022-11-15T04:30:59;85.33;;;42.33;;
72065;SDS011;59939;52.516;13.420;2022-11-15T04:34:22;79.87;;;43.17;;
72065;SDS011;59939;52.516;13.420;2022-11-15T04:37:44;79.97;;;39.80;;
72065;SDS011;59939;52.516;13.420;2022-11-15T04:41:11;77.37;;;42.77;;
72065;SDS011;59939;52.516;13.420;2022-11-15T04:44:34;73.40;;;36.80;;
72065;SDS011;59939;52.516;13.420;2022-11-15T04:48:05;80.70;;;41.40;;
72065;SDS011;59939;52.516;13.420;2022-11-15T04:51:27;76.53;;;40.17;;
72065;SDS011;59939;52.516;13.420;2022-11-15T04:54:50;79.97;;;42.80;;
72065;SDS011;59939;52.516;13.420;2022-11-15T04:58:14;78.80;;;40.27;;
72065;SDS011;59939;52.516;13.420;2022-11-15T05:01:36;77.97;;;40.10;;
72065;SDS011;59939;52.516;13.420;2022-11-15T05:05:05;73.10;;;37.30;;
72065;SDS011;59939;52.516;13.420;2022-11-15T05:08:37;75.60;;;39.23;;
72065;SDS011;59939;52.516;13.420;2022-11-15T05:12:06;80.20;;;42.63;;
72065;SDS011;59939;52.516;13.420;2022-11-15T05:15:29;74.13;;;40.90;;
72065;SDS011;59939;52.516;13.420;2022-11-15T05:18:52;79.03;;;42.40;;
72065;SDS011;59939;52.516;13.420;2022-11-15T05:22:15;80.63;;;41.43;;
72065;SDS011;59939;52.516;13.420;2022-11-15T05:25:38;84.70;;;42.03;;
72065;SDS011;59939;52.516;13.420;2022-11-15T05:29:00;80.10;;;40.10;;
72065;SDS011;59939;52.516;13.420;2022-11-15T05:32:23;84.37;;;39.90;;
72065;SDS011;59939;52.516;13.420;2022-11-15T05:35:46;77.43;;;38.20;;
72065;SDS011;59939;52.516;13.420;2022-11-15T05:39:16;78.63;;;41.07;;
72065;SDS011;59939;52.516;13.420;2022-11-15T05:42:39;72.60;;;37.97;;
72065;SDS011;59939;52.516;13.420;2022-11-15T05:46:02;73.57;;;36.97;;
72065;SDS011;59939;52.516;13.420;2022-11-15T05:49:28;73.77;;;39.23;;
72065;SDS011;59939;52.516;13.420;2022-11-15T05:52:54;80.63;;;41.17;;
72065;SDS011;59939;52.516;13.420;2022-11-15T05:56:17;80.50;;;41.10;;
72065;SDS011;59939;52.516;13.420;2022-11-15T05:59:39;74.30;;;38.40;;
72065;SDS011;59939;52.516;13.420;2022-11-15T06:03:06;78.43;;;40.50;;
72065;SDS011;59939;52.516;13.420;2022-11-15T06:06:28;83.50;;;42.57;;
72065;SDS011;59939;52.516;13.420;2022-11-15T06:09:51;84.93;;;43.17;;
72065;SDS011;59939;52.516;13.420;2022-11-15T06:13:13;75.77;;;41.77;;
72065;SDS011;59939;52.516;13.420;2022-11-15T06:16:39;76.87;;;40.63;;
72065;SDS011;59939;52.516;13.420;2022-11-15T06:20:04;85.43;;;42.97;;
72065;SDS011;59939;52.516;13.420;2022-11-15T06:23:27;82.07;;;41.37;;
72065;SDS011;59939;52.516;13.420;2022-11-15T06:26:54;78.20;;;41.53;;
72065;SDS011;59939;52.516;13.420;2022-11-15T06:30:29;80.20;;;39.87;;
72065;SDS011;59939;52.516;13.420;2022-11-15T06:33:52;79.87;;;38.90;;
72065;SDS011;59939;52.516;13.420;2022-11-15T06:37:20;74.83;;;39.07;;
72065;SDS011;59939;52.516;13.420;2022-11-15T06:40:43;75.43;;;38.33;;
72065;SDS011;59939;52.516;13.420;2022-11-15T06:44:05;78.33;;;40.87;;
72065;SDS011;59939;52.516;13.420;2022-11-15T06:47:31;71.30;;;38.77;;
72065;SDS011;59939;52.516;13.420;2022-11-15T06:50:57;75.10;;;38.70;;
72065;SDS011;59939;52.516;13.420;2022-11-15T06:54:30;70.03;;;37.60;;
72065;SDS011;59939;52.516;13.420;2022-11-15T06:57:53;73.77;;;38.00;;
72065;SDS011;59939;52.516;13.420;2022-11-15T07:01:15;66.30;;;36.17;;
72065;SDS011;59939;52.516;13.420;2022-11-15T07:04:39;67.33;;;36.60;;
72065;SDS011;59939;52.516;13.420;2022-11-15T07:08:03;61.00;;;33.87;;
72065;SDS011;59939;52.516;13.420;2022-11-15T07:11:26;72.07;;;38.23;;
72065;SDS011;59939;52.516;13.420;2022-11-15T07:14:49;64.77;;;34.83;;
72065;SDS011;59939;52.516;13.420;2022-11-15T07:18:11;69.17;;;35.80;;
72065;SDS011;59939;52.516;13.420;2022-11-15T07:21:34;60.67;;;31.30;;
72065;SDS011;59939;52.516;13.420;2022-11-15T07:24:57;56.67;;;31.13;;
72065;SDS011;59939;52.516;13.420;2022-11-15T07:28:19;57.03;;;30.97;;
72065;SDS011;59939;52.516;13.420;2022-11-15T07:31:42;58.07;;;31.30;;
72065;SDS011;59939;52.516;13.420;2022-11-15T07:35:04;58.63;;;33.20;;
72065;SDS011;59939;52.516;13.420;2022-11-15T07:38:28;56.90;;;30.63;;
72065;SDS011;59939;52.516;13.420;2022-11-15T07:41:51;54.90;;;30.53;;
72065;SDS011;59939;52.516;13.420;2022-11-15T07:45:34;54.63;;;30.67;;
72065;SDS011;59939;52.516;13.420;2022-11-15T07:49:02;54.17;;;30.27;;
72065;SDS011;59939;52.516;13.420;2022-11-15T07:52:29;47.13;;;25.17;;
72065;SDS011;59939;52.516;13.420;2022-11-15T07:55:52;50.03;;;26.57;;
72065;SDS011;59939;52.516;13.420;2022-11-15T07:59:16;51.20;;;28.07;;
72065;SDS011;59939;52.516;13.420;2022-11-15T08:02:45;54.40;;;29.80;;
72065;SDS011;59939;52.516;13.420;2022-11-15T08:06:09;52.73;;;29.60;;
72065;SDS011;59939;52.516;13.420;2022-11-15T08:09:31;51.80;;;26.43;;
72065;SDS011;59939;52.516;13.420;2022-11-15T08:12:58;47.10;;;25.60;;
72065;SDS011;59939;52.516;13.420;2022-11-15T08:16:22;44.13;;;25.40;;
72065;SDS011;59939;52.516;13.420;2022-11-15T08:19:45;46.37;;;24.67;;
72065;SDS011;59939;52.516;13.420;2022-11-15T08:23:17;47.03;;;26.70;;
72065;SDS011;59939;52.516;13.420;2022-11-15T08:26:55;45.67;;;27.53;;
72065;SDS011;59939;52.516;13.420;2022-11-15T08:30:19;47.60;;;26.20;;
72065;SDS011;59939;52.516;13.420;2022-11-15T08:33:45;50.23;;;25.17;;
72065;SDS011;59939;52.516;13.420;2022-11-15T08:37:09;47.30;;;25.43;;
72065;SDS011;59939;52.516;13.420;2022-11-15T08:40:31;44.07;;;27.73;;
72065;SDS011;59939;52.516;13.420;2022-11-15T08:43:54;42.50;;;24.33;;
72065;SDS011;59939;52.516;13.420;2022-11-15T08:47:18;44.73;;;25.20;;
72065;SDS011;59939;52.516;13.420;2022-11-15T08:50:41;46.03;;;24.63;;
72065;SDS011;59939;52.516;13.420;2022-11-15T08:54:06;45.08;;;23.75;;
72065;SDS011;59939;52.516;13.420;2022-11-15T08:57:29;41.67;;;24.13;;
72065;SDS011;59939;52.516;13.420;2022-11-15T09:00:52;45.72;;;23.88;;
72065;SDS011;59939;52.516;13.420;2022-11-15T09:04:16;39.85;;;23.63;;
72065;SDS011;59939;52.516;13.420;2022-11-15T09:07:40;40.92;;;22.88;;
72065;SDS011;59939;52.516;13.420;2022-11-15T09:11:04;38.40;;;22.35;;
72065;SDS011;59939;52.516;13.420;2022-11-15T09:14:28;40.22;;;23.58;;
72065;SDS011;59939;52.516;13.420;2022-11-15T09:17:52;39.25;;;22.20;;
72065;SDS011;59939;52.516;13.420;2022-11-15T09:21:15;37.60;;;22.00;;
72065;SDS011;59939;52.516;13.420;2022-11-15T09:24:42;40.50;;;22.67;;
72065;SDS011;59939;52.516;13.420;2022-11-15T09:28:05;40.55;;;22.02;;
72065;SDS011;59939;52.516;13.420;2022-11-15T09:31:32;36.95;;;21.50;;
72065;SDS011;59939;52.516;13.420;2022-11-15T09:34:58;34.60;;;19.58;;
72065;SDS011;59939;52.516;13.420;2022-11-15T09:38:23;32.60;;;19.15;;
72065;SDS011;59939;52.516;13.420;2022-11-15T09:42:08;33.60;;;18.88;;
72065;SDS011;59939;52.516;13.420;2022-11-15T09:49:51;29.80;;;16.83;;
72065;SDS011;59939;52.516;13.420;2022-11-15T09:53:13;32.42;;;15.20;;
72065;SDS011;59939;52.516;13.420;2022-11-15T09:56:38;29.35;;;15.93;;
72065;SDS011;59939;52.516;13.420;2022-11-15T10:06:55;28.48;;;16.10;;
72065;SDS011;59939;52.516;13.420;2022-11-15T10:10:17;28.98;;;16.83;;
72065;SDS011;59939;52.516;13.420;2022-11-15T10:13:26;28.98;;;15.85;;
72065;SDS011;59939;52.516;13.420;2022-11-15T10:20:25;28.25;;;15.98;;
72065;SDS011;59939;52.516;13.420;2022-11-15T10:23:31;28.25;;;15.52;;
72065;SDS011;59939;52.516;13.420;2022-11-15T10:26:36;28.83;;;15.95;;
72065;SDS011;59939;52.516;13.420;2022-11-15T10:29:45;28.17;;;15.45;;
72065;SDS011;59939;52.516;13.420;2022-11-15T10:32:53;29.50;;;15.95;;
72065;SDS011;59939;52.516;13.420;2022-11-15T10:39:16;27.13;;;15.63;;
72065;SDS011;59939;52.516;13.420;2022-11-15T10:42:25;27.35;;;15.32;;
72065;SDS011;59939;52.516;13.420;2022-11-15T10:45:46;25.30;;;15.27;;
72065;SDS011;59939;52.516;13.420;2022-11-15T10:48:50;28.52;;;15.55;;
72065;SDS011;59939;52.516;13.420;2022-11-15T10:55:24;27.90;;;17.45;;
72065;SDS011;59939;52.516;13.420;2022-11-15T11:01:56;29.67;;;16.35;;
72065;SDS011;59939;52.516;13.420;2022-11-15T11:05:00;26.40;;;15.82;;
72065;SDS011;59939;52.516;13.420;2022-11-15T11:08:52;38.55;;;19.38;;
72065;SDS011;59939;52.516;13.420;2022-11-15T11:11:47;48.33;;;19.88;;
72065;SDS011;59939;52.516;13.420;2022-11-15T11:14:53;58.42;;;22.05;;
72065;SDS011;59939;52.516;13.420;2022-11-15T11:18:03;35.80;;;16.38;;
72065;SDS011;59939;52.516;13.420;2022-11-15T11:21:14;40.95;;;17.75;;
72065;SDS011;59939;52.516;13.420;2022-11-15T11:31:50;50.88;;;19.00;;
72065;SDS011;59939;52.516;13.420;2022-11-15T11:38:47;44.75;;;20.02;;
72065;SDS011;59939;52.516;13.420;2022-11-15T11:42:19;57.05;;;20.40;;
72065;SDS011;59939;52.516;13.420;2022-11-15T11:49:18;46.83;;;18.27;;
72065;SDS011;59939;52.516;13.420;2022-11-15T11:52:38;41.15;;;16.98;;
72065;SDS011;59939;52.516;13.420;2022-11-15T11:55:50;36.72;;;16.23;;
72065;SDS011;59939;52.516;13.420;2022-11-15T12:03:34;35.58;;;16.27;;
72065;SDS011;59939;52.516;13.420;2022-11-15T12:09:57;40.13;;;17.83;;
72065;SDS011;59939;52.516;13.420;2022-11-15T12:13:10;51.47;;;18.65;;
72065;SDS011;59939;52.516;13.420;2022-11-15T12:16:28;48.42;;;17.40;;
72065;SDS011;59939;52.516;13.420;2022-11-15T12:19:34;49.72;;;18.05;;
72065;SDS011;59939;52.516;13.420;2022-11-15T12:22:44;43.88;;;16.70;;
72065;SDS011;59939;52.516;13.420;2022-11-15T12:29:11;70.60;;;21.05;;
72065;SDS011;59939;52.516;13.420;2022-11-15T12:32:26;47.25;;;18.52;;
72065;SDS011;59939;52.516;13.420;2022-11-15T12:35:40;42.30;;;17.77;;
72065;SDS011;59939;52.516;13.420;2022-11-15T12:38:56;39.70;;;16.60;;
72065;SDS011;59939;52.516;13.420;2022-11-15T12:54:50;72.88;;;19.80;;
72065;SDS011;59939;52.516;13.420;2022-11-15T12:58:19;90.20;;;21.15;;
72065;SDS011;59939;52.516;13.420;2022-11-15T13:04:40;63.63;;;19.15;;
72065;SDS011;59939;52.516;13.420;2022-11-15T13:10:52;61.72;;;18.20;;
72065;SDS011;59939;52.516;13.420;2022-11-15T13:13:58;43.60;;;16.20;;
72065;SDS011;59939;52.516;13.420;2022-11-15T13:17:48;64.93;;;19.10;;
72065;SDS011;59939;52.516;13.420;2022-11-15T13:20:44;74.65;;;19.40;;
72065;SDS011;59939;52.516;13.420;2022-11-15T13:23:53;111.78;;;24.38;;
72065;SDS011;59939;52.516;13.420;2022-11-15T13:27:01;62.33;;;18.73;;
72065;SDS011;59939;52.516;13.420;2022-11-15T13:30:05;55.42;;;18.00;;
72065;SDS011;59939;52.516;13.420;2022-11-15T13:33:18;54.78;;;16.85;;
72065;SDS011;59939;52.516;13.420;2022-11-15T13:36:38;79.78;;;19.60;;
72065;SDS011;59939;52.516;13.420;2022-11-15T13:39:43;60.63;;;17.40;;
72065;SDS011;59939;52.516;13.420;2022-11-15T13:42:47;46.63;;;15.25;;
72065;SDS011;59939;52.516;13.420;2022-11-15T13:49:31;93.82;;;20.70;;
72065;SDS011;59939;52.516;13.420;2022-11-15T13:52:36;59.17;;;16.80;;
72065;SDS011;59939;52.516;13.420;2022-11-15T13:55:44;77.53;;;18.27;;
72065;SDS011;59939;52.516;13.420;2022-11-15T13:58:48;66.50;;;16.85;;
72065;SDS011;59939;52.516;13.420;2022-11-15T14:01:54;56.85;;;15.30;;
72065;SDS011;59939;52.516;13.420;2022-11-15T14:05:14;88.72;;;19.27;;
72065;SDS011;59939;52.516;13.420;2022-11-15T14:11:26;74.28;;;19.23;;
72065;SDS011;59939;52.516;13.420;2022-11-15T14:14:31;58.28;;;17.25;;
72065;SDS011;59939;52.516;13.420;2022-11-15T14:17:37;87.28;;;19.30;;
72065;SDS011;59939;52.516;13.420;2022-11-15T14:21:05;55.13;;;16.10;;
72065;SDS011;59939;52.516;13.420;2022-11-15T14:24:30;76.97;;;19.67;;
72065;SDS011;59939;52.516;13.420;2022-11-15T14:27:43;78.68;;;18.65;;
72065;SDS011;59939;52.516;13.420;2022-11-15T14:31:16;72.88;;;18.40;;
72065;SDS011;59939;52.516;13.420;2022-11-15T14:34:21;51.25;;;16.27;;
72065;SDS011;59939;52.516;13.420;2022-11-15T14:37:29;94.50;;;20.75;;
72065;SDS011;59939;52.516;13.420;2022-11-15T14:40:37;60.15;;;17.48;;
72065;SDS011;59939;52.516;13.420;2022-11-15T14:43:41;68.20;;;17.90;;
72065;SDS011;59939;52.516;13.420;2022-11-15T14:46:53;58.13;;;17.00;;
72065;SDS011;59939;52.516;13.420;2022-11-15T14:49:57;64.05;;;18.23;;
72065;SDS011;59939;52.516;13.420;2022-11-15T14:53:04;76.75;;;19.35;;
72065;SDS011;59939;52.516;13.420;2022-11-15T14:56:08;63.38;;;19.05;;
72065;SDS011;59939;52.516;13.420;2022-11-15T14:59:15;87.43;;;21.80;;
72065;SDS011;59939;52.516;13.420;2022-11-15T15:02:23;76.40;;;20.95;;
72065;SDS011;59939;52.516;13.420;2022-11-15T15:05:43;54.90;;;17.60;;
72065;SDS011;59939;52.516;13.420;2022-11-15T15:08:47;72.50;;;20.33;;
72065;SDS011;59939;52.516;13.420;2022-11-15T15:11:54;58.20;;;19.15;;
72065;SDS011;59939;52.516;13.420;2022-11-15T15:15:27;72.13;;;21.70;;
72065;SDS011;59939;52.516;13.420;2022-11-15T15:18:36;76.22;;;21.55;;
72065;SDS011;59939;52.516;13.420;2022-11-15T15:21:55;58.50;;;19.42;;
72065;SDS011;59939;52.516;13.420;2022-11-15T15:24:59;59.47;;;20.45;;
72065;SDS011;59939;52.516;13.420;2022-11-15T15:28:08;60.33;;;21.00;;
72065;SDS011;59939;52.516;13.420;2022-11-15T15:31:13;53.60;;;19.27;;
72065;SDS011;59939;52.516;13.420;2022-11-15T15:34:16;97.50;;;26.00;;
72065;SDS011;59939;52.516;13.420;2022-11-15T15:37:23;67.88;;;21.98;;
72065;SDS011;59939;52.516;13.420;2022-11-15T15:40:31;60.33;;;20.65;;
72065;SDS011;59939;52.516;13.420;2022-11-15T15:43:38;61.13;;;20.65;;
72065;SDS011;59939;52.516;13.420;2022-11-15T15:46:45;64.85;;;20.83;;
72065;SDS011;59939;52.516;13.420;2022-11-15T15:49:50;78.80;;;23.08;;
72065;SDS011;59939;52.516;13.420;2022-11-15T15:52:55;59.45;;;20.85;;
72065;SDS011;59939;52.516;13.420;2022-11-15T15:56:01;61.30;;;20.20;;
72065;SDS011;59939;52.516;13.420;2022-11-15T15:59:06;63.70;;;20.93;;
72065;SDS011;59939;52.516;13.420;2022-11-15T16:02:12;81.75;;;24.77;;
72065;SDS011;59939;52.516;13.420;2022-11-15T16:05:17;57.65;;;20.67;;
72065;SDS011;59939;52.516;13.420;2022-11-15T16:08:22;74.25;;;22.95;;
72065;SDS011;59939;52.516;13.420;2022-11-15T16:11:28;61.90;;;21.87;;
72065;SDS011;59939;52.516;13.420;2022-11-15T16:14:32;62.80;;;22.27;;
72065;SDS011;59939;52.516;13.420;2022-11-15T16:17:40;44.50;;;18.37;;
72065;SDS011;59939;52.516;13.420;2022-11-15T16:20:55;64.72;;;22.33;;
72065;SDS011;59939;52.516;13.420;2022-11-15T16:24:00;69.70;;;24.37;;
72065;SDS011;59939;52.516;13.420;2022-11-15T16:27:05;72.10;;;23.77;;
72065;SDS011;59939;52.516;13.420;2022-11-15T16:30:10;61.93;;;23.23;;
72065;SDS011;59939;52.516;13.420;2022-11-15T16:33:17;51.40;;;20.80;;
72065;SDS011;59939;52.516;13.420;2022-11-15T16:36:24;60.80;;;23.63;;
72065;SDS011;59939;52.516;13.420;2022-11-15T16:39:33;73.43;;;25.40;;
72065;SDS011;59939;52.516;13.420;2022-11-15T16:42:37;73.60;;;28.50;;
72065;SDS011;59939;52.516;13.420;2022-11-15T16:45:46;65.90;;;26.17;;
72065;SDS011;59939;52.516;13.420;2022-11-15T16:48:57;88.47;;;31.20;;
72065;SDS011;59939;52.516;13.420;2022-11-15T16:52:01;70.03;;;31.13;;
72065;SDS011;59939;52.516;13.420;2022-11-15T16:55:09;68.87;;;29.17;;
72065;SDS011;59939;52.516;13.420;2022-11-15T16:58:14;106.97;;;35.73;;
72065;SDS011;59939;52.516;13.420;2022-11-15T17:01:18;64.10;;;29.17;;
72065;SDS011;59939;52.516;13.420;2022-11-15T17:04:29;95.00;;;37.07;;
72065;SDS011;59939;52.516;13.420;2022-11-15T17:07:38;70.47;;;32.43;;
72065;SDS011;59939;52.516;13.420;2022-11-15T17:10:45;74.00;;;34.77;;
72065;SDS011;59939;52.516;13.420;2022-11-15T17:13:49;89.20;;;38.27;;
72065;SDS011;59939;52.516;13.420;2022-11-15T17:17:02;94.43;;;40.50;;
72065;SDS011;59939;52.516;13.420;2022-11-15T17:20:08;85.93;;;41.30;;
72065;SDS011;59939;52.516;13.420;2022-11-15T17:23:19;79.87;;;42.80;;
72065;SDS011;59939;52.516;13.420;2022-11-15T17:26:23;110.03;;;44.43;;
72065;SDS011;59939;52.516;13.420;2022-11-15T17:29:36;100.83;;;46.63;;
72065;SDS011;59939;52.516;13.420;2022-11-15T17:32:40;76.03;;;40.57;;
72065;SDS011;59939;52.516;13.420;2022-11-15T17:35:44;82.73;;;43.50;;
72065;SDS011;59939;52.516;13.420;2022-11-15T17:38:49;86.17;;;43.07;;
72065;SDS011;59939;52.516;13.420;2022-11-15T17:41:58;114.13;;;46.27;;
72065;SDS011;59939;52.516;13.420;2022-11-15T17:45:02;69.90;;;41.00;;
72065;SDS011;59939;52.516;13.420;2022-11-15T17:48:09;95.63;;;44.93;;
72065;SDS011;59939;52.516;13.420;2022-11-15T17:51:17;84.27;;;42.23;;
72065;SDS011;59939;52.516;13.420;2022-11-15T17:54:24;87.87;;;43.27;;
72065;SDS011;59939;52.516;13.420;2022-11-15T17:57:28;84.73;;;43.57;;
72065;SDS011;59939;52.516;13.420;2022-11-15T18:00:32;82.07;;;41.10;;
72065;SDS011;59939;52.516;13.420;2022-11-15T18:03:36;78.47;;;42.30;;
72065;SDS011;59939;52.516;13.420;2022-11-15T18:06:41;87.37;;;44.63;;
72065;SDS011;59939;52.516;13.420;2022-11-15T18:09:52;83.20;;;41.43;;
72065;SDS011;59939;52.516;13.420;2022-11-15T18:12:59;81.50;;;43.10;;
72065;SDS011;59939;52.516;13.420;2022-11-15T18:16:04;78.30;;;42.60;;
72065;SDS011;59939;52.516;13.420;2022-11-15T18:19:10;97.83;;;43.77;;
72065;SDS011;59939;52.516;13.420;2022-11-15T18:22:16;92.80;;;45.30;;
72065;SDS011;59939;52.516;13.420;2022-11-15T18:25:23;75.70;;;42.47;;
72065;SDS011;59939;52.516;13.420;2022-11-15T18:28:30;79.87;;;43.90;;
72065;SDS011;59939;52.516;13.420;2022-11-15T18:31:35;83.73;;;43.73;;
72065;SDS011;59939;52.516;13.420;2022-11-15T18:34:39;77.27;;;41.53;;
72065;SDS011;59939;52.516;13.420;2022-11-15T18:37:57;86.43;;;45.50;;
72065;SDS011;59939;52.516;13.420;2022-11-15T18:41:08;79.33;;;42.70;;
72065;SDS011;59939;52.516;13.420;2022-11-15T18:44:23;74.10;;;42.23;;
72065;SDS011;59939;52.516;13.420;2022-11-15T18:47:27;83.63;;;42.40;;
72065;SDS011;59939;52.516;13.420;2022-11-15T18:50:32;96.20;;;45.80;;
72065;SDS011;59939;52.516;13.420;2022-11-15T18:53:39;75.97;;;42.77;;
72065;SDS011;59939;52.516;13.420;2022-11-15T18:56:43;83.17;;;44.50;;
72065;SDS011;59939;52.516;13.420;2022-11-15T18:59:48;83.53;;;43.73;;
72065;SDS011;59939;52.516;13.420;2022-11-15T19:02:52;86.30;;;45.43;;
72065;SDS011;59939;52.516;13.420;2022-11-15T19:06:01;84.60;;;43.97;;
72065;SDS011;59939;52.516;13.420;2022-11-15T19:09:10;90.80;;;45.20;;
72065;SDS011;59939;52.516;13.420;2022-11-15T19:12:18;105.70;;;54.57;;
72065;SDS011;59939;52.516;13.420;2022-11-15T19:15:22;137.63;;;58.50;;
72065;SDS011;59939;52.516;13.420;2022-11-15T19:18:26;112.67;;;50.50;;
72065;SDS011;59939;52.516;13.420;2022-11-15T19:21:31;127.67;;;51.70;;
72065;SDS011;59939;52.516;13.420;2022-11-15T19:24:35;126.83;;;55.23;;
72065;SDS011;59939;52.516;13.420;2022-11-15T19:27:39;189.43;;;60.43;;
72065;SDS011;59939;52.516;13.420;2022-11-15T19:30:43;162.67;;;58.97;;
72065;SDS011;59939;52.516;13.420;2022-11-15T19:33:47;168.03;;;59.47;;
72065;SDS011;59939;52.516;13.420;2022-11-15T19:36:51;178.63;;;59.50;;
72065;SDS011;59939;52.516;13.420;2022-11-15T19:39:54;172.63;;;59.17;;
72065;SDS011;59939;52.516;13.420;2022-11-15T19:42:59;165.73;;;60.03;;
72065;SDS011;59939;52.516;13.420;2022-11-15T19:46:03;200.17;;;63.00;;
72065;SDS011;59939;52.516;13.420;2022-11-15T19:49:08;190.60;;;62.87;;
72065;SDS011;59939;52.516;13.420;2022-11-15T19:52:13;178.37;;;62.27;;
72065;SDS011;59939;52.516;13.420;2022-11-15T19:55:17;263.70;;;72.30;;
72065;SDS011;59939;52.516;13.420;2022-11-15T19:58:21;159.50;;;57.67;;
72065;SDS011;59939;52.516;13.420;2022-11-15T20:01:26;246.83;;;69.33;;
72065;SDS011;59939;52.516;13.420;2022-11-15T20:04:32;241.47;;;71.87;;
72065;SDS011;59939;52.516;13.420;2022-11-15T20:07:36;207.77;;;63.60;;
72065;SDS011;59939;52.516;13.420;2022-11-15T20:10:42;273.47;;;72.30;;
72065;SDS011;59939;52.516;13.420;2022-11-15T20:13:46;289.57;;;73.30;;
72065;SDS011;59939;52.516;13.420;2022-11-15T20:16:51;312.70;;;77.30;;
72065;SDS011;59939;52.516;13.420;2022-11-15T20:19:57;353.10;;;87.20;;
72065;SDS011;59939;52.516;13.420;2022-11-15T20:23:01;299.60;;;75.53;;
72065;SDS011;59939;52.516;13.420;2022-11-15T20:26:06;309.50;;;72.87;;
72065;SDS011;59939;52.516;13.420;2022-11-15T20:29:10;333.53;;;77.07;;
72065;SDS011;59939;52.516;13.420;2022-11-15T20:32:14;299.73;;;69.20;;
72065;SDS011;59939;52.516;13.420;2022-11-15T20:35:18;269.33;;;72.70;;
72065;SDS011;59939;52.516;13.420;2022-11-15T20:38:23;280.73;;;73.20;;